sensor_id;sensor_type;location;lat;lon;timestamp;P1;durP1;ratioP1;P2;durP2;ratioP2
21392;SDS011;10857;52.228;21.026;2022-10-13T05:46:53;57.80;;;33.77;;
21392;SDS011;10857;52.228;21.026;2022-10-13T05:49:20;54.40;;;33.03;;
21392;SDS011;10857;52.228;21.026;2022-10-13T05:51:48;57.10;;;32.93;;
21392;SDS011;10857;52.228;21.026;2022-10-13T05:54:20;60.07;;;34.07;;
21392;SDS011;10857;52.228;21.026;2022-10-13T05:57:17;59.30;;;33.93;;
21392;SDS011;10857;52.228;21.026;2022-10-13T05:59:49;55.87;;;32.60;;
21392;SDS011;10857;52.228;21.026;2022-10-13T06:02:21;53.00;;;32.07;;
21392;SDS011;10857;52.228;21.026;2022-10-13T06:04:52;54.93;;;32.57;;
21392;SDS011;10857;52.228;21.026;2022-10-13T06:07:22;53.67;;;31.60;;
21392;SDS011;10857;52.228;21.026;2022-10-13T06:09:49;52.07;;;31.50;;
21392;SDS011;10857;52.228;21.026;2022-10-13T06:12:17;52.70;;;31.53;;
21392;SDS011;10857;52.228;21.026;2022-10-13T06:14:44;57.10;;;32.10;;
21392;SDS011;10857;52.228;21.026;2022-10-13T06:17:13;53.70;;;30.77;;
21392;SDS011;10857;52.228;21.026;2022-10-13T06:19:41;52.93;;;30.80;;
21392;SDS011;10857;52.228;21.026;2022-10-13T06:22:10;59.57;;;30.90;;
21392;SDS011;10857;52.228;21.026;2022-10-13T06:24:37;54.13;;;30.57;;
21392;SDS011;10857;52.228;21.026;2022-10-13T06:27:07;52.70;;;28.37;;
21392;SDS011;10857;52.228;21.026;2022-10-13T06:29:36;49.80;;;28.23;;
21392;SDS011;10857;52.228;21.026;2022-10-13T06:32:03;51.00;;;28.70;;
21392;SDS011;10857;52.228;21.026;2022-10-13T06:34:31;50.57;;;28.77;;
21392;SDS011;10857;52.228;21.026;2022-10-13T06:36:58;53.90;;;29.33;;
21392;SDS011;10857;52.228;21.026;2022-10-13T06:39:25;43.07;;;27.40;;
21392;SDS011;10857;52.228;21.026;2022-10-13T06:41:52;46.00;;;26.60;;
21392;SDS011;10857;52.228;21.026;2022-10-13T06:44:27;45.50;;;25.43;;
21392;SDS011;10857;52.228;21.026;2022-10-13T06:47:00;43.60;;;25.20;;
21392;SDS011;10857;52.228;21.026;2022-10-13T06:49:28;42.77;;;25.03;;
21392;SDS011;10857;52.228;21.026;2022-10-13T06:51:55;43.27;;;24.47;;
21392;SDS011;10857;52.228;21.026;2022-10-13T06:54:22;42.40;;;23.70;;
21392;SDS011;10857;52.228;21.026;2022-10-13T06:56:50;40.57;;;24.97;;
21392;SDS011;10857;52.228;21.026;2022-10-13T06:59:17;43.63;;;24.57;;
21392;SDS011;10857;52.228;21.026;2022-10-13T07:01:44;45.10;;;23.73;;
21392;SDS011;10857;52.228;21.026;2022-10-13T07:04:14;40.83;;;24.77;;
21392;SDS011;10857;52.228;21.026;2022-10-13T07:06:41;42.47;;;24.50;;
21392;SDS011;10857;52.228;21.026;2022-10-13T07:09:08;41.80;;;24.83;;
21392;SDS011;10857;52.228;21.026;2022-10-13T07:11:35;40.23;;;23.73;;
21392;SDS011;10857;52.228;21.026;2022-10-13T07:14:02;43.67;;;22.50;;
21392;SDS011;10857;52.228;21.026;2022-10-13T07:16:30;38.03;;;21.40;;
21392;SDS011;10857;52.228;21.026;2022-10-13T07:18:57;36.90;;;21.87;;
21392;SDS011;10857;52.228;21.026;2022-10-13T07:21:24;40.20;;;22.47;;
21392;SDS011;10857;52.228;21.026;2022-10-13T07:23:51;38.13;;;21.33;;
21392;SDS011;10857;52.228;21.026;2022-10-13T07:26:18;41.93;;;20.30;;
21392;SDS011;10857;52.228;21.026;2022-10-13T07:28:45;35.53;;;20.13;;
21392;SDS011;10857;52.228;21.026;2022-10-13T07:31:13;34.30;;;18.87;;
21392;SDS011;10857;52.228;21.026;2022-10-13T07:33:43;33.90;;;19.53;;
21392;SDS011;10857;52.228;21.026;2022-10-13T07:36:15;38.33;;;19.47;;
21392;SDS011;10857;52.228;21.026;2022-10-13T07:38:42;35.67;;;20.57;;
21392;SDS011;10857;52.228;21.026;2022-10-13T07:41:10;42.43;;;26.60;;
21392;SDS011;10857;52.228;21.026;2022-10-13T07:43:38;50.20;;;26.97;;
21392;SDS011;10857;52.228;21.026;2022-10-13T07:46:07;42.37;;;26.60;;
21392;SDS011;10857;52.228;21.026;2022-10-13T07:48:35;45.23;;;27.23;;
21392;SDS011;10857;52.228;21.026;2022-10-13T07:51:03;45.27;;;27.07;;
21392;SDS011;10857;52.228;21.026;2022-10-13T07:53:31;45.70;;;26.23;;
21392;SDS011;10857;52.228;21.026;2022-10-13T07:56:01;42.73;;;27.20;;
21392;SDS011;10857;52.228;21.026;2022-10-13T07:58:29;47.00;;;26.13;;
21392;SDS011;10857;52.228;21.026;2022-10-13T08:00:56;41.63;;;25.33;;
21392;SDS011;10857;52.228;21.026;2022-10-13T08:03:25;41.00;;;23.77;;
21392;SDS011;10857;52.228;21.026;2022-10-13T08:05:53;43.93;;;23.03;;
21392;SDS011;10857;52.228;21.026;2022-10-13T08:08:20;41.57;;;22.73;;
21392;SDS011;10857;52.228;21.026;2022-10-13T08:10:47;39.93;;;22.13;;
21392;SDS011;10857;52.228;21.026;2022-10-13T08:13:14;37.13;;;22.67;;
21392;SDS011;10857;52.228;21.026;2022-10-13T08:15:42;34.07;;;21.13;;
21392;SDS011;10857;52.228;21.026;2022-10-13T08:18:10;33.47;;;19.65;;
21392;SDS011;10857;52.228;21.026;2022-10-13T08:20:40;38.30;;;20.92;;
21392;SDS011;10857;52.228;21.026;2022-10-13T08:23:09;43.30;;;21.13;;
21392;SDS011;10857;52.228;21.026;2022-10-13T08:25:42;40.20;;;21.23;;
21392;SDS011;10857;52.228;21.026;2022-10-13T08:28:23;39.45;;;19.33;;
21392;SDS011;10857;52.228;21.026;2022-10-13T08:30:56;35.53;;;19.08;;
21392;SDS011;10857;52.228;21.026;2022-10-13T08:33:24;31.80;;;18.17;;
21392;SDS011;10857;52.228;21.026;2022-10-13T08:35:52;29.35;;;18.70;;
21392;SDS011;10857;52.228;21.026;2022-10-13T08:38:19;31.15;;;18.38;;
21392;SDS011;10857;52.228;21.026;2022-10-13T08:40:47;33.00;;;18.58;;
21392;SDS011;10857;52.228;21.026;2022-10-13T08:43:17;33.72;;;18.10;;
21392;SDS011;10857;52.228;21.026;2022-10-13T08:45:51;34.65;;;18.13;;
21392;SDS011;10857;52.228;21.026;2022-10-13T08:48:23;32.72;;;16.92;;
21392;SDS011;10857;52.228;21.026;2022-10-13T08:50:55;32.75;;;16.60;;
21392;SDS011;10857;52.228;21.026;2022-10-13T08:53:30;27.67;;;16.05;;
21392;SDS011;10857;52.228;21.026;2022-10-13T08:58:40;25.80;;;15.00;;
21392;SDS011;10857;52.228;21.026;2022-10-13T09:01:13;32.92;;;15.30;;
21392;SDS011;10857;52.228;21.026;2022-10-13T09:03:51;28.75;;;15.05;;
21392;SDS011;10857;52.228;21.026;2022-10-13T09:11:22;27.13;;;14.82;;
21392;SDS011;10857;52.228;21.026;2022-10-13T09:13:52;33.58;;;15.75;;
21392;SDS011;10857;52.228;21.026;2022-10-13T09:16:29;27.88;;;15.20;;
21392;SDS011;10857;52.228;21.026;2022-10-13T09:21:52;25.65;;;15.07;;
21392;SDS011;10857;52.228;21.026;2022-10-13T09:24:22;27.05;;;15.15;;
21392;SDS011;10857;52.228;21.026;2022-10-13T09:29:45;26.50;;;16.00;;
21392;SDS011;10857;52.228;21.026;2022-10-13T09:32:19;28.92;;;14.98;;
21392;SDS011;10857;52.228;21.026;2022-10-13T09:34:51;24.85;;;14.05;;
21392;SDS011;10857;52.228;21.026;2022-10-13T09:39:59;27.98;;;14.50;;
21392;SDS011;10857;52.228;21.026;2022-10-13T09:42:37;23.85;;;13.75;;
21392;SDS011;10857;52.228;21.026;2022-10-13T09:45:18;28.05;;;14.10;;
21392;SDS011;10857;52.228;21.026;2022-10-13T09:47:57;18.83;;;11.48;;
21392;SDS011;10857;52.228;21.026;2022-10-13T09:50:33;24.00;;;13.23;;
21392;SDS011;10857;52.228;21.026;2022-10-13T09:53:24;24.02;;;13.02;;
21392;SDS011;10857;52.228;21.026;2022-10-13T09:58:54;26.17;;;14.18;;
21392;SDS011;10857;52.228;21.026;2022-10-13T10:01:38;20.40;;;10.85;;
21392;SDS011;10857;52.228;21.026;2022-10-13T10:04:13;28.23;;;10.93;;
21392;SDS011;10857;52.228;21.026;2022-10-13T10:06:46;18.05;;;9.82;;
21392;SDS011;10857;52.228;21.026;2022-10-13T10:12:02;15.48;;;8.18;;
21392;SDS011;10857;52.228;21.026;2022-10-13T10:14:32;16.83;;;7.72;;
21392;SDS011;10857;52.228;21.026;2022-10-13T10:17:22;19.45;;;8.32;;
21392;SDS011;10857;52.228;21.026;2022-10-13T10:23:00;40.65;;;9.20;;
21392;SDS011;10857;52.228;21.026;2022-10-13T10:25:41;18.70;;;7.53;;
21392;SDS011;10857;52.228;21.026;2022-10-13T10:28:18;15.60;;;6.68;;
21392;SDS011;10857;52.228;21.026;2022-10-13T10:31:01;12.48;;;5.55;;
21392;SDS011;10857;52.228;21.026;2022-10-13T10:36:21;10.45;;;5.30;;
21392;SDS011;10857;52.228;21.026;2022-10-13T10:38:56;13.73;;;5.75;;
21392;SDS011;10857;52.228;21.026;2022-10-13T10:41:39;12.98;;;5.45;;
21392;SDS011;10857;52.228;21.026;2022-10-13T10:44:16;12.20;;;5.70;;
21392;SDS011;10857;52.228;21.026;2022-10-13T10:47:10;11.20;;;5.57;;
21392;SDS011;10857;52.228;21.026;2022-10-13T10:50:04;13.05;;;5.43;;
21392;SDS011;10857;52.228;21.026;2022-10-13T10:55:26;9.80;;;4.68;;
21392;SDS011;10857;52.228;21.026;2022-10-13T11:00:44;10.88;;;5.13;;
21392;SDS011;10857;52.228;21.026;2022-10-13T11:05:59;13.65;;;5.07;;
21392;SDS011;10857;52.228;21.026;2022-10-13T11:08:40;12.10;;;4.75;;
21392;SDS011;10857;52.228;21.026;2022-10-13T11:13:58;12.25;;;4.55;;
21392;SDS011;10857;52.228;21.026;2022-10-13T11:19:32;10.02;;;4.40;;
21392;SDS011;10857;52.228;21.026;2022-10-13T11:35:18;15.27;;;5.18;;
21392;SDS011;10857;52.228;21.026;2022-10-13T11:38:02;10.13;;;5.25;;
21392;SDS011;10857;52.228;21.026;2022-10-13T11:41:01;12.55;;;5.38;;
21392;SDS011;10857;52.228;21.026;2022-10-13T11:47:01;10.63;;;4.97;;
21392;SDS011;10857;52.228;21.026;2022-10-13T11:49:45;11.02;;;4.90;;
21392;SDS011;10857;52.228;21.026;2022-10-13T11:55:49;10.40;;;4.88;;
21392;SDS011;10857;52.228;21.026;2022-10-13T11:58:42;10.07;;;4.75;;
21392;SDS011;10857;52.228;21.026;2022-10-13T12:01:13;10.23;;;5.20;;
21392;SDS011;10857;52.228;21.026;2022-10-13T12:03:44;11.05;;;4.80;;
21392;SDS011;10857;52.228;21.026;2022-10-13T12:06:34;13.27;;;5.50;;
21392;SDS011;10857;52.228;21.026;2022-10-13T12:09:14;11.82;;;5.60;;
21392;SDS011;10857;52.228;21.026;2022-10-13T12:11:43;12.48;;;5.35;;
21392;SDS011;10857;52.228;21.026;2022-10-13T12:14:21;13.07;;;5.03;;
21392;SDS011;10857;52.228;21.026;2022-10-13T12:17:33;13.13;;;4.95;;
21392;SDS011;10857;52.228;21.026;2022-10-13T12:20:39;10.00;;;4.88;;
21392;SDS011;10857;52.228;21.026;2022-10-13T12:22:59;15.48;;;4.78;;
21392;SDS011;10857;52.228;21.026;2022-10-13T12:25:28;9.55;;;4.50;;
21392;SDS011;10857;52.228;21.026;2022-10-13T12:27:57;12.18;;;4.72;;
21392;SDS011;10857;52.228;21.026;2022-10-13T12:30:28;10.43;;;4.22;;
21392;SDS011;10857;52.228;21.026;2022-10-13T12:32:57;8.95;;;3.80;;
21392;SDS011;10857;52.228;21.026;2022-10-13T12:35:27;8.90;;;3.95;;
21392;SDS011;10857;52.228;21.026;2022-10-13T12:37:57;12.05;;;3.70;;
21392;SDS011;10857;52.228;21.026;2022-10-13T12:40:28;10.70;;;4.72;;
21392;SDS011;10857;52.228;21.026;2022-10-13T12:42:56;12.52;;;3.80;;
21392;SDS011;10857;52.228;21.026;2022-10-13T12:45:25;9.07;;;3.70;;
21392;SDS011;10857;52.228;21.026;2022-10-13T12:47:59;9.07;;;3.90;;
21392;SDS011;10857;52.228;21.026;2022-10-13T12:53:11;12.48;;;4.55;;
21392;SDS011;10857;52.228;21.026;2022-10-13T12:55:48;12.18;;;4.07;;
21392;SDS011;10857;52.228;21.026;2022-10-13T12:58:25;9.45;;;3.80;;
21392;SDS011;10857;52.228;21.026;2022-10-13T13:00:55;11.02;;;4.10;;
21392;SDS011;10857;52.228;21.026;2022-10-13T13:03:30;11.23;;;4.50;;
21392;SDS011;10857;52.228;21.026;2022-10-13T13:06:06;9.75;;;4.03;;
21392;SDS011;10857;52.228;21.026;2022-10-13T13:08:37;13.82;;;4.20;;
21392;SDS011;10857;52.228;21.026;2022-10-13T13:11:18;8.13;;;3.70;;
21392;SDS011;10857;52.228;21.026;2022-10-13T13:17:24;10.13;;;4.10;;
21392;SDS011;10857;52.228;21.026;2022-10-13T13:20:32;11.48;;;4.18;;
21392;SDS011;10857;52.228;21.026;2022-10-13T13:23:08;9.13;;;3.60;;
21392;SDS011;10857;52.228;21.026;2022-10-13T13:25:45;11.00;;;3.70;;
21392;SDS011;10857;52.228;21.026;2022-10-13T13:28:20;11.15;;;4.13;;
21392;SDS011;10857;52.228;21.026;2022-10-13T13:30:51;11.00;;;4.75;;
21392;SDS011;10857;52.228;21.026;2022-10-13T13:33:30;10.48;;;4.15;;
21392;SDS011;10857;52.228;21.026;2022-10-13T13:38:56;11.00;;;4.13;;
21392;SDS011;10857;52.228;21.026;2022-10-13T13:41:30;12.55;;;5.10;;
21392;SDS011;10857;52.228;21.026;2022-10-13T13:44:11;12.88;;;4.70;;
21392;SDS011;10857;52.228;21.026;2022-10-13T13:46:43;13.57;;;5.13;;
21392;SDS011;10857;52.228;21.026;2022-10-13T13:49:16;12.02;;;5.22;;
21392;SDS011;10857;52.228;21.026;2022-10-13T13:51:47;12.50;;;4.60;;
21392;SDS011;10857;52.228;21.026;2022-10-13T13:54:27;11.50;;;4.93;;
21392;SDS011;10857;52.228;21.026;2022-10-13T13:56:59;11.60;;;5.20;;
21392;SDS011;10857;52.228;21.026;2022-10-13T13:59:32;12.93;;;5.03;;
21392;SDS011;10857;52.228;21.026;2022-10-13T14:02:18;11.68;;;4.88;;
21392;SDS011;10857;52.228;21.026;2022-10-13T14:04:47;8.02;;;4.80;;
21392;SDS011;10857;52.228;21.026;2022-10-13T14:07:18;14.93;;;5.00;;
21392;SDS011;10857;52.228;21.026;2022-10-13T14:09:57;11.13;;;5.00;;
21392;SDS011;10857;52.228;21.026;2022-10-13T14:12:28;8.57;;;4.45;;
21392;SDS011;10857;52.228;21.026;2022-10-13T14:14:56;13.23;;;5.93;;
21392;SDS011;10857;52.228;21.026;2022-10-13T14:17:26;27.00;;;7.40;;
21392;SDS011;10857;52.228;21.026;2022-10-13T14:19:54;13.10;;;5.10;;
21392;SDS011;10857;52.228;21.026;2022-10-13T14:22:24;12.40;;;5.03;;
21392;SDS011;10857;52.228;21.026;2022-10-13T14:24:54;11.55;;;4.93;;
21392;SDS011;10857;52.228;21.026;2022-10-13T14:27:22;13.68;;;4.65;;
21392;SDS011;10857;52.228;21.026;2022-10-13T14:29:51;12.20;;;4.80;;
21392;SDS011;10857;52.228;21.026;2022-10-13T14:32:19;9.05;;;5.07;;
21392;SDS011;10857;52.228;21.026;2022-10-13T14:34:52;14.13;;;5.13;;
21392;SDS011;10857;52.228;21.026;2022-10-13T14:37:20;10.48;;;5.20;;
21392;SDS011;10857;52.228;21.026;2022-10-13T14:39:58;9.88;;;5.20;;
21392;SDS011;10857;52.228;21.026;2022-10-13T14:42:26;12.68;;;4.85;;
21392;SDS011;10857;52.228;21.026;2022-10-13T14:44:53;10.70;;;4.60;;
21392;SDS011;10857;52.228;21.026;2022-10-13T14:47:20;13.77;;;5.07;;
21392;SDS011;10857;52.228;21.026;2022-10-13T14:49:48;14.23;;;4.88;;
21392;SDS011;10857;52.228;21.026;2022-10-13T14:52:15;10.50;;;5.13;;
21392;SDS011;10857;52.228;21.026;2022-10-13T14:54:42;14.00;;;5.97;;
21392;SDS011;10857;52.228;21.026;2022-10-13T14:57:11;13.27;;;4.88;;
21392;SDS011;10857;52.228;21.026;2022-10-13T14:59:44;10.95;;;5.15;;
21392;SDS011;10857;52.228;21.026;2022-10-13T15:02:13;13.52;;;5.10;;
21392;SDS011;10857;52.228;21.026;2022-10-13T15:04:49;14.52;;;5.80;;
21392;SDS011;10857;52.228;21.026;2022-10-13T15:07:16;8.82;;;4.60;;
21392;SDS011;10857;52.228;21.026;2022-10-13T15:09:46;14.15;;;4.97;;
21392;SDS011;10857;52.228;21.026;2022-10-13T15:12:31;15.55;;;4.70;;
21392;SDS011;10857;52.228;21.026;2022-10-13T15:15:05;9.73;;;4.68;;
21392;SDS011;10857;52.228;21.026;2022-10-13T15:17:32;10.52;;;5.00;;
21392;SDS011;10857;52.228;21.026;2022-10-13T15:19:59;10.25;;;5.75;;
21392;SDS011;10857;52.228;21.026;2022-10-13T15:22:28;11.18;;;5.30;;
21392;SDS011;10857;52.228;21.026;2022-10-13T15:24:56;9.88;;;4.47;;
21392;SDS011;10857;52.228;21.026;2022-10-13T15:27:24;13.65;;;5.05;;
21392;SDS011;10857;52.228;21.026;2022-10-13T15:29:50;9.80;;;5.13;;
21392;SDS011;10857;52.228;21.026;2022-10-13T15:32:19;12.82;;;5.05;;
21392;SDS011;10857;52.228;21.026;2022-10-13T15:34:51;11.52;;;4.50;;
21392;SDS011;10857;52.228;21.026;2022-10-13T15:37:18;12.90;;;5.03;;
21392;SDS011;10857;52.228;21.026;2022-10-13T15:39:45;11.40;;;4.93;;
21392;SDS011;10857;52.228;21.026;2022-10-13T15:42:12;12.20;;;4.93;;
21392;SDS011;10857;52.228;21.026;2022-10-13T15:44:41;14.88;;;4.95;;
21392;SDS011;10857;52.228;21.026;2022-10-13T15:47:30;13.38;;;5.50;;
21392;SDS011;10857;52.228;21.026;2022-10-13T15:49:57;14.73;;;5.30;;
21392;SDS011;10857;52.228;21.026;2022-10-13T15:52:27;15.80;;;5.72;;
21392;SDS011;10857;52.228;21.026;2022-10-13T15:55:00;12.70;;;5.50;;
21392;SDS011;10857;52.228;21.026;2022-10-13T15:57:27;12.23;;;5.00;;
21392;SDS011;10857;52.228;21.026;2022-10-13T15:59:56;12.80;;;5.10;;
21392;SDS011;10857;52.228;21.026;2022-10-13T16:02:23;14.05;;;5.25;;
21392;SDS011;10857;52.228;21.026;2022-10-13T16:04:50;12.35;;;5.85;;
21392;SDS011;10857;52.228;21.026;2022-10-13T16:07:17;11.35;;;5.40;;
21392;SDS011;10857;52.228;21.026;2022-10-13T16:09:44;13.18;;;5.60;;
21392;SDS011;10857;52.228;21.026;2022-10-13T16:12:11;16.88;;;5.63;;
21392;SDS011;10857;52.228;21.026;2022-10-13T16:14:37;19.48;;;5.50;;
21392;SDS011;10857;52.228;21.026;2022-10-13T16:17:04;11.95;;;5.28;;
21392;SDS011;10857;52.228;21.026;2022-10-13T16:19:31;15.35;;;6.20;;
21392;SDS011;10857;52.228;21.026;2022-10-13T16:21:58;17.17;;;6.18;;
21392;SDS011;10857;52.228;21.026;2022-10-13T16:24:25;11.70;;;5.57;;
21392;SDS011;10857;52.228;21.026;2022-10-13T16:26:54;14.40;;;5.70;;
21392;SDS011;10857;52.228;21.026;2022-10-13T16:29:22;14.45;;;6.00;;
21392;SDS011;10857;52.228;21.026;2022-10-13T16:31:49;12.85;;;5.80;;
21392;SDS011;10857;52.228;21.026;2022-10-13T16:34:16;17.55;;;7.03;;
21392;SDS011;10857;52.228;21.026;2022-10-13T16:36:43;13.77;;;5.78;;
21392;SDS011;10857;52.228;21.026;2022-10-13T16:39:10;13.40;;;6.45;;
21392;SDS011;10857;52.228;21.026;2022-10-13T16:41:38;14.50;;;6.38;;
21392;SDS011;10857;52.228;21.026;2022-10-13T16:44:05;16.23;;;6.78;;
21392;SDS011;10857;52.228;21.026;2022-10-13T16:46:32;16.40;;;6.90;;
21392;SDS011;10857;52.228;21.026;2022-10-13T16:48:59;18.13;;;7.57;;
21392;SDS011;10857;52.228;21.026;2022-10-13T16:51:26;16.15;;;6.60;;
21392;SDS011;10857;52.228;21.026;2022-10-13T16:53:56;13.55;;;6.50;;
21392;SDS011;10857;52.228;21.026;2022-10-13T16:56:31;19.75;;;7.38;;
21392;SDS011;10857;52.228;21.026;2022-10-13T16:59:01;22.50;;;8.13;;
21392;SDS011;10857;52.228;21.026;2022-10-13T17:01:43;18.80;;;8.00;;
21392;SDS011;10857;52.228;21.026;2022-10-13T17:04:11;22.65;;;9.15;;
21392;SDS011;10857;52.228;21.026;2022-10-13T17:06:47;19.35;;;8.68;;
21392;SDS011;10857;52.228;21.026;2022-10-13T17:09:18;18.83;;;8.77;;
21392;SDS011;10857;52.228;21.026;2022-10-13T17:11:49;25.27;;;9.15;;
21392;SDS011;10857;52.228;21.026;2022-10-13T17:14:17;22.85;;;10.10;;
21392;SDS011;10857;52.228;21.026;2022-10-13T17:16:46;25.30;;;10.82;;
21392;SDS011;10857;52.228;21.026;2022-10-13T17:19:14;28.70;;;12.02;;
21392;SDS011;10857;52.228;21.026;2022-10-13T17:21:43;25.13;;;12.18;;
21392;SDS011;10857;52.228;21.026;2022-10-13T17:24:11;28.10;;;12.98;;
21392;SDS011;10857;52.228;21.026;2022-10-13T17:26:44;22.60;;;12.02;;
21392;SDS011;10857;52.228;21.026;2022-10-13T17:29:20;29.38;;;12.52;;
21392;SDS011;10857;52.228;21.026;2022-10-13T17:31:54;23.90;;;11.82;;
21392;SDS011;10857;52.228;21.026;2022-10-13T17:34:22;26.48;;;11.82;;
21392;SDS011;10857;52.228;21.026;2022-10-13T17:36:50;24.50;;;12.15;;
21392;SDS011;10857;52.228;21.026;2022-10-13T17:39:21;26.63;;;12.45;;
21392;SDS011;10857;52.228;21.026;2022-10-13T17:41:50;24.58;;;12.20;;
21392;SDS011;10857;52.228;21.026;2022-10-13T17:44:18;24.65;;;12.88;;
21392;SDS011;10857;52.228;21.026;2022-10-13T17:46:48;26.52;;;13.30;;
21392;SDS011;10857;52.228;21.026;2022-10-13T17:49:20;28.63;;;12.90;;
21392;SDS011;10857;52.228;21.026;2022-10-13T17:51:53;26.30;;;12.43;;
21392;SDS011;10857;52.228;21.026;2022-10-13T17:54:25;27.08;;;12.68;;
21392;SDS011;10857;52.228;21.026;2022-10-13T17:56:58;29.95;;;13.45;;
21392;SDS011;10857;52.228;21.026;2022-10-13T17:59:26;28.70;;;12.52;;
21392;SDS011;10857;52.228;21.026;2022-10-13T18:02:03;32.08;;;13.20;;
21392;SDS011;10857;52.228;21.026;2022-10-13T18:04:31;26.90;;;12.48;;
21392;SDS011;10857;52.228;21.026;2022-10-13T18:07:02;29.30;;;12.65;;
21392;SDS011;10857;52.228;21.026;2022-10-13T18:09:31;22.98;;;12.95;;
21392;SDS011;10857;52.228;21.026;2022-10-13T18:11:58;30.15;;;13.32;;
21392;SDS011;10857;52.228;21.026;2022-10-13T18:14:26;27.48;;;13.55;;
21392;SDS011;10857;52.228;21.026;2022-10-13T18:17:00;25.52;;;12.93;;
21392;SDS011;10857;52.228;21.026;2022-10-13T18:19:44;22.75;;;12.63;;
21392;SDS011;10857;52.228;21.026;2022-10-13T18:22:11;27.33;;;13.98;;
21392;SDS011;10857;52.228;21.026;2022-10-13T18:24:38;26.65;;;13.88;;
21392;SDS011;10857;52.228;21.026;2022-10-13T18:27:05;32.60;;;13.93;;
21392;SDS011;10857;52.228;21.026;2022-10-13T18:29:33;29.73;;;13.23;;
21392;SDS011;10857;52.228;21.026;2022-10-13T18:32:01;27.75;;;14.07;;
21392;SDS011;10857;52.228;21.026;2022-10-13T18:34:28;28.60;;;13.85;;
21392;SDS011;10857;52.228;21.026;2022-10-13T18:37:01;26.73;;;13.77;;
21392;SDS011;10857;52.228;21.026;2022-10-13T18:39:33;32.25;;;15.48;;
21392;SDS011;10857;52.228;21.026;2022-10-13T18:42:10;29.93;;;14.73;;
21392;SDS011;10857;52.228;21.026;2022-10-13T18:44:41;26.95;;;13.43;;
21392;SDS011;10857;52.228;21.026;2022-10-13T18:47:12;31.60;;;14.80;;
21392;SDS011;10857;52.228;21.026;2022-10-13T18:49:40;30.07;;;15.20;;
21392;SDS011;10857;52.228;21.026;2022-10-13T18:52:07;31.23;;;15.30;;
21392;SDS011;10857;52.228;21.026;2022-10-13T18:54:37;31.00;;;15.43;;
21392;SDS011;10857;52.228;21.026;2022-10-13T18:57:05;29.43;;;14.73;;
21392;SDS011;10857;52.228;21.026;2022-10-13T18:59:33;32.20;;;15.63;;
21392;SDS011;10857;52.228;21.026;2022-10-13T19:02:04;28.70;;;15.13;;
21392;SDS011;10857;52.228;21.026;2022-10-13T19:04:34;26.97;;;15.13;;
21392;SDS011;10857;52.228;21.026;2022-10-13T19:07:01;28.33;;;15.47;;
21392;SDS011;10857;52.228;21.026;2022-10-13T19:09:33;31.60;;;16.53;;
21392;SDS011;10857;52.228;21.026;2022-10-13T19:12:00;31.27;;;16.10;;
21392;SDS011;10857;52.228;21.026;2022-10-13T19:14:33;34.75;;;16.67;;
21392;SDS011;10857;52.228;21.026;2022-10-13T19:17:00;38.33;;;17.20;;
21392;SDS011;10857;52.228;21.026;2022-10-13T19:19:32;34.83;;;16.87;;
21392;SDS011;10857;52.228;21.026;2022-10-13T19:22:01;31.90;;;16.57;;
21392;SDS011;10857;52.228;21.026;2022-10-13T19:24:30;35.33;;;17.97;;
21392;SDS011;10857;52.228;21.026;2022-10-13T19:27:01;32.23;;;17.80;;
21392;SDS011;10857;52.228;21.026;2022-10-13T19:29:28;37.77;;;18.70;;
21392;SDS011;10857;52.228;21.026;2022-10-13T19:31:57;34.50;;;18.00;;
21392;SDS011;10857;52.228;21.026;2022-10-13T19:34:24;31.87;;;17.50;;
21392;SDS011;10857;52.228;21.026;2022-10-13T19:36:52;38.43;;;18.17;;
21392;SDS011;10857;52.228;21.026;2022-10-13T19:39:24;36.67;;;17.50;;
21392;SDS011;10857;52.228;21.026;2022-10-13T19:41:53;30.97;;;17.07;;
21392;SDS011;10857;52.228;21.026;2022-10-13T19:44:22;34.50;;;17.53;;
21392;SDS011;10857;52.228;21.026;2022-10-13T19:46:53;35.17;;;17.80;;
21392;SDS011;10857;52.228;21.026;2022-10-13T19:49:22;31.30;;;17.53;;
21392;SDS011;10857;52.228;21.026;2022-10-13T19:51:51;37.27;;;18.57;;
21392;SDS011;10857;52.228;21.026;2022-10-13T19:54:19;38.67;;;18.23;;
21392;SDS011;10857;52.228;21.026;2022-10-13T19:56:47;36.67;;;18.07;;
21392;SDS011;10857;52.228;21.026;2022-10-13T19:59:17;38.80;;;18.83;;
21392;SDS011;10857;52.228;21.026;2022-10-13T20:01:49;33.60;;;17.87;;
21392;SDS011;10857;52.228;21.026;2022-10-13T20:04:19;31.30;;;17.80;;
21392;SDS011;10857;52.228;21.026;2022-10-13T20:06:47;39.77;;;19.43;;
21392;SDS011;10857;52.228;21.026;2022-10-13T20:09:16;40.73;;;18.77;;
21392;SDS011;10857;52.228;21.026;2022-10-13T20:11:44;38.30;;;19.63;;
21392;SDS011;10857;52.228;21.026;2022-10-13T20:14:13;34.80;;;18.60;;
21392;SDS011;10857;52.228;21.026;2022-10-13T20:16:41;35.63;;;18.97;;
21392;SDS011;10857;52.228;21.026;2022-10-13T20:19:13;37.60;;;18.07;;
21392;SDS011;10857;52.228;21.026;2022-10-13T20:21:46;35.23;;;18.00;;
21392;SDS011;10857;52.228;21.026;2022-10-13T20:24:13;40.37;;;21.20;;
21392;SDS011;10857;52.228;21.026;2022-10-13T20:26:43;34.77;;;18.93;;
21392;SDS011;10857;52.228;21.026;2022-10-13T20:29:11;35.67;;;19.13;;
21392;SDS011;10857;52.228;21.026;2022-10-13T20:31:38;38.53;;;18.67;;
21392;SDS011;10857;52.228;21.026;2022-10-13T20:34:08;38.77;;;18.57;;
21392;SDS011;10857;52.228;21.026;2022-10-13T20:36:35;36.53;;;18.47;;
21392;SDS011;10857;52.228;21.026;2022-10-13T20:39:04;35.70;;;18.23;;
21392;SDS011;10857;52.228;21.026;2022-10-13T20:41:32;36.93;;;19.13;;
21392;SDS011;10857;52.228;21.026;2022-10-13T20:43:59;36.73;;;19.33;;
21392;SDS011;10857;52.228;21.026;2022-10-13T20:46:31;37.97;;;19.60;;
21392;SDS011;10857;52.228;21.026;2022-10-13T20:48:59;36.37;;;19.17;;
21392;SDS011;10857;52.228;21.026;2022-10-13T20:51:43;40.10;;;19.77;;
21392;SDS011;10857;52.228;21.026;2022-10-13T20:54:11;37.53;;;19.97;;
21392;SDS011;10857;52.228;21.026;2022-10-13T20:56:41;39.20;;;19.27;;
21392;SDS011;10857;52.228;21.026;2022-10-13T20:59:11;40.80;;;19.57;;
21392;SDS011;10857;52.228;21.026;2022-10-13T21:01:42;41.80;;;20.03;;
21392;SDS011;10857;52.228;21.026;2022-10-13T21:04:11;36.63;;;19.77;;
21392;SDS011;10857;52.228;21.026;2022-10-13T21:06:43;41.73;;;19.60;;
21392;SDS011;10857;52.228;21.026;2022-10-13T21:09:16;33.53;;;19.00;;
21392;SDS011;10857;52.228;21.026;2022-10-13T21:11:54;42.47;;;20.07;;
21392;SDS011;10857;52.228;21.026;2022-10-13T21:14:24;37.80;;;19.97;;
21392;SDS011;10857;52.228;21.026;2022-10-13T21:16:51;37.80;;;19.33;;
21392;SDS011;10857;52.228;21.026;2022-10-13T21:19:19;34.60;;;19.57;;
21392;SDS011;10857;52.228;21.026;2022-10-13T21:21:46;38.73;;;19.93;;
21392;SDS011;10857;52.228;21.026;2022-10-13T21:24:13;43.40;;;19.43;;
21392;SDS011;10857;52.228;21.026;2022-10-13T21:26:40;35.80;;;19.60;;
21392;SDS011;10857;52.228;21.026;2022-10-13T21:29:11;37.33;;;19.53;;
21392;SDS011;10857;52.228;21.026;2022-10-13T21:31:38;40.37;;;20.00;;
21392;SDS011;10857;52.228;21.026;2022-10-13T21:34:05;34.80;;;19.03;;
21392;SDS011;10857;52.228;21.026;2022-10-13T21:36:33;38.03;;;20.40;;